sensor_id;sensor_type;location;lat;lon;timestamp;pressure;altitude;pressure_sealevel;temperature;humidity
15007;BME280;7599;50.748;13.142;2024-01-30T00:01:16;97037.75;;;10.21;63.15
15007;BME280;7599;50.748;13.142;2024-01-30T00:04:19;97047.16;;;10.24;62.90
15007;BME280;7599;50.748;13.142;2024-01-30T00:07:22;97040.16;;;10.23;63.05
15007;BME280;7599;50.748;13.142;2024-01-30T00:10:59;97038.28;;;10.28;63.12
15007;BME280;7599;50.748;13.142;2024-01-30T00:14:03;97048.22;;;10.28;63.15
15007;BME280;7599;50.748;13.142;2024-01-30T00:17:06;97050.91;;;10.23;63.37
15007;BME280;7599;50.748;13.142;2024-01-30T00:20:10;97056.53;;;10.26;63.34
15007;BME280;7599;50.748;13.142;2024-01-30T00:23:13;97056.53;;;10.26;62.91
15007;BME280;7599;50.748;13.142;2024-01-30T00:26:18;97050.66;;;10.24;62.99
15007;BME280;7599;50.748;13.142;2024-01-30T00:29:22;97046.34;;;10.23;63.03
15007;BME280;7599;50.748;13.142;2024-01-30T00:32:43;97046.09;;;10.25;63.22
15007;BME280;7599;50.748;13.142;2024-01-30T00:35:45;97039.94;;;10.19;63.26
15007;BME280;7599;50.748;13.142;2024-01-30T00:38:48;97051.47;;;10.25;63.39
15007;BME280;7599;50.748;13.142;2024-01-30T00:41:51;97056.53;;;10.26;63.20
15007;BME280;7599;50.748;13.142;2024-01-30T00:44:57;97050.91;;;10.23;63.31
15007;BME280;7599;50.748;13.142;2024-01-30T00:48:02;97031.66;;;10.16;63.27
15007;BME280;7599;50.748;13.142;2024-01-30T00:51:05;97030.25;;;10.18;63.05
15007;BME280;7599;50.748;13.142;2024-01-30T00:54:39;97051.47;;;10.25;63.51
15007;BME280;7599;50.748;13.142;2024-01-30T00:57:43;97040.16;;;10.23;63.27
15007;BME280;7599;50.748;13.142;2024-01-30T01:00:46;97031.34;;;10.17;63.09
15007;BME280;7599;50.748;13.142;2024-01-30T01:03:49;97038.03;;;10.25;63.17
15007;BME280;7599;50.748;13.142;2024-01-30T01:07:07;97034.00;;;10.22;63.11
15007;BME280;7599;50.748;13.142;2024-01-30T01:10:19;97038.84;;;10.25;62.94
15007;BME280;7599;50.748;13.142;2024-01-30T01:13:22;97037.25;;;10.19;63.37
15007;BME280;7599;50.748;13.142;2024-01-30T01:16:25;97031.03;;;10.24;63.47
15007;BME280;7599;50.748;13.142;2024-01-30T01:19:27;97029.75;;;10.16;63.32
15007;BME280;7599;50.748;13.142;2024-01-30T01:22:30;97042.31;;;10.26;63.40
15007;BME280;7599;50.748;13.142;2024-01-30T01:25:35;97026.22;;;10.21;62.72
15007;BME280;7599;50.748;13.142;2024-01-30T01:28:39;97036.69;;;10.27;63.15
15007;BME280;7599;50.748;13.142;2024-01-30T01:31:41;97033.47;;;10.25;63.42
15007;BME280;7599;50.748;13.142;2024-01-30T01:34:54;97034.78;;;10.28;63.25
15007;BME280;7599;50.748;13.142;2024-01-30T01:37:57;97034.00;;;10.27;63.00
15007;BME280;7599;50.748;13.142;2024-01-30T01:41:03;97026.72;;;10.28;62.59
15007;BME280;7599;50.748;13.142;2024-01-30T01:47:30;97006.38;;;10.17;63.05
15007;BME280;7599;50.748;13.142;2024-01-30T01:50:33;97029.91;;;10.30;63.19
15007;BME280;7599;50.748;13.142;2024-01-30T01:53:36;97022.41;;;10.27;63.06
15007;BME280;7599;50.748;13.142;2024-01-30T01:56:40;97020.25;;;10.29;63.07
15007;BME280;7599;50.748;13.142;2024-01-30T01:59:43;97015.19;;;10.22;63.24
15007;BME280;7599;50.748;13.142;2024-01-30T02:02:46;97007.91;;;10.23;63.28
15007;BME280;7599;50.748;13.142;2024-01-30T02:05:50;97019.22;;;10.25;63.17
15007;BME280;7599;50.748;13.142;2024-01-30T02:08:53;97003.69;;;10.17;63.27
15007;BME280;7599;50.748;13.142;2024-01-30T02:11:57;97011.97;;;10.25;62.87
15007;BME280;7599;50.748;13.142;2024-01-30T02:15:00;97006.84;;;10.24;63.50
15007;BME280;7599;50.748;13.142;2024-01-30T02:18:12;97024.53;;;10.30;63.39
15007;BME280;7599;50.748;13.142;2024-01-30T02:21:18;97007.19;;;10.17;63.07
15007;BME280;7599;50.748;13.142;2024-01-30T02:24:21;97024.59;;;10.25;62.95
15007;BME280;7599;50.748;13.142;2024-01-30T02:27:24;97016.81;;;10.23;62.98
15007;BME280;7599;50.748;13.142;2024-01-30T02:30:27;97009.00;;;10.22;62.72
15007;BME280;7599;50.748;13.142;2024-01-30T02:33:36;97016.28;;;10.21;63.47
15007;BME280;7599;50.748;13.142;2024-01-30T02:36:54;97017.88;;;10.27;63.20
15007;BME280;7599;50.748;13.142;2024-01-30T02:39:59;97017.34;;;10.25;62.72
15007;BME280;7599;50.748;13.142;2024-01-30T02:43:21;97012.22;;;10.24;62.73
15007;BME280;7599;50.748;13.142;2024-01-30T02:46:24;97005.50;;;10.26;63.20
15007;BME280;7599;50.748;13.142;2024-01-30T02:49:27;96999.34;;;10.26;62.79
15007;BME280;7599;50.748;13.142;2024-01-30T02:52:47;97011.13;;;10.30;62.69
15007;BME280;7599;50.748;13.142;2024-01-30T02:55:50;97003.63;;;10.27;63.26
15007;BME280;7599;50.748;13.142;2024-01-30T02:58:53;97015.19;;;10.27;62.94
15007;BME280;7599;50.748;13.142;2024-01-30T03:01:56;96998.53;;;10.25;62.80
15007;BME280;7599;50.748;13.142;2024-01-30T03:04:59;97004.94;;;10.29;62.98
15007;BME280;7599;50.748;13.142;2024-01-30T03:08:22;97003.91;;;10.25;62.65
15007;BME280;7599;50.748;13.142;2024-01-30T03:11:32;97003.63;;;10.27;62.51
15007;BME280;7599;50.748;13.142;2024-01-30T03:14:35;96991.00;;;10.22;62.26
15007;BME280;7599;50.748;13.142;2024-01-30T03:17:37;96991.50;;;10.29;62.64
15007;BME280;7599;50.748;13.142;2024-01-30T03:20:54;96992.88;;;10.27;62.64
15007;BME280;7599;50.748;13.142;2024-01-30T03:24:15;96993.44;;;10.24;63.20
15007;BME280;7599;50.748;13.142;2024-01-30T03:27:37;96993.16;;;10.25;62.95
15007;BME280;7599;50.748;13.142;2024-01-30T03:30:54;96996.38;;;10.27;62.63
15007;BME280;7599;50.748;13.142;2024-01-30T03:34:09;96987.53;;;10.22;63.17
15007;BME280;7599;50.748;13.142;2024-01-30T03:37:12;96984.59;;;10.18;63.08
15007;BME280;7599;50.748;13.142;2024-01-30T03:40:25;96989.69;;;10.25;62.85
15007;BME280;7599;50.748;13.142;2024-01-30T03:43:36;96992.38;;;10.25;62.99
15007;BME280;7599;50.748;13.142;2024-01-30T03:46:39;96972.00;;;10.19;63.05
15007;BME280;7599;50.748;13.142;2024-01-30T03:49:42;96984.00;;;10.26;63.09
15007;BME280;7599;50.748;13.142;2024-01-30T03:52:56;96988.06;;;10.24;63.16
15007;BME280;7599;50.748;13.142;2024-01-30T03:56:12;96989.13;;;10.28;62.74
15007;BME280;7599;50.748;13.142;2024-01-30T03:59:15;96979.47;;;10.22;63.03
15007;BME280;7599;50.748;13.142;2024-01-30T04:02:34;96971.47;;;10.17;62.52
15007;BME280;7599;50.748;13.142;2024-01-30T04:05:41;96978.66;;;10.21;62.62
15007;BME280;7599;50.748;13.142;2024-01-30T04:08:44;96985.38;;;10.24;62.67
15007;BME280;7599;50.748;13.142;2024-01-30T04:12:03;96970.59;;;10.21;62.43
15007;BME280;7599;50.748;13.142;2024-01-30T04:15:06;96968.47;;;10.18;61.93
15007;BME280;7599;50.748;13.142;2024-01-30T04:18:09;96976.50;;;10.23;61.91
15007;BME280;7599;50.748;13.142;2024-01-30T04:21:12;96985.63;;;10.27;61.98
15007;BME280;7599;50.748;13.142;2024-01-30T04:24:14;96986.69;;;10.26;61.87
15007;BME280;7599;50.748;13.142;2024-01-30T04:27:37;96988.31;;;10.27;62.24
15007;BME280;7599;50.748;13.142;2024-01-30T04:30:39;96969.31;;;10.19;61.69
15007;BME280;7599;50.748;13.142;2024-01-30T04:33:42;96960.94;;;10.20;62.07
15007;BME280;7599;50.748;13.142;2024-01-30T04:36:45;96976.47;;;10.28;62.15
15007;BME280;7599;50.748;13.142;2024-01-30T04:39:58;96962.25;;;10.28;62.36
15007;BME280;7599;50.748;13.142;2024-01-30T04:43:02;96971.38;;;10.27;62.30
15007;BME280;7599;50.748;13.142;2024-01-30T04:46:05;96968.41;;;10.28;62.39
15007;BME280;7599;50.748;13.142;2024-01-30T04:49:08;96955.53;;;10.25;61.85
15007;BME280;7599;50.748;13.142;2024-01-30T04:52:11;96952.59;;;10.22;62.04
15007;BME280;7599;50.748;13.142;2024-01-30T04:55:29;96959.31;;;10.24;61.90
15007;BME280;7599;50.748;13.142;2024-01-30T04:58:33;96962.00;;;10.24;62.42
15007;BME280;7599;50.748;13.142;2024-01-30T05:01:36;96955.03;;;10.18;62.29
15007;BME280;7599;50.748;13.142;2024-01-30T05:04:40;96951.06;;;10.16;62.03
15007;BME280;7599;50.748;13.142;2024-01-30T05:07:43;96964.41;;;10.26;62.21
15007;BME280;7599;50.748;13.142;2024-01-30T05:10:46;96949.72;;;10.13;62.13
15007;BME280;7599;50.748;13.142;2024-01-30T05:13:50;96952.09;;;10.20;62.44
15007;BME280;7599;50.748;13.142;2024-01-30T05:16:53;96960.94;;;10.20;62.13
15007;BME280;7599;50.748;13.142;2024-01-30T05:19:56;96951.28;;;10.19;62.55
15007;BME280;7599;50.748;13.142;2024-01-30T05:22:59;96946.44;;;10.21;63.24
15007;BME280;7599;50.748;13.142;2024-01-30T05:26:01;96949.66;;;10.23;63.31
15007;BME280;7599;50.748;13.142;2024-01-30T05:29:06;96951.56;;;10.18;62.52
15007;BME280;7599;50.748;13.142;2024-01-30T05:32:09;96940.59;;;10.14;62.34
15007;BME280;7599;50.748;13.142;2024-01-30T05:35:29;96955.56;;;10.20;62.19
15007;BME280;7599;50.748;13.142;2024-01-30T05:38:33;96954.00;;;10.19;62.63
15007;BME280;7599;50.748;13.142;2024-01-30T05:41:35;96954.25;;;10.18;62.27
15007;BME280;7599;50.748;13.142;2024-01-30T05:51:39;96948.66;;;10.14;62.26
15007;BME280;7599;50.748;13.142;2024-01-30T05:54:42;96952.72;;;10.12;62.43
15007;BME280;7599;50.748;13.142;2024-01-30T05:57:45;96951.13;;;10.11;62.06
15007;BME280;7599;50.748;13.142;2024-01-30T06:00:57;96937.16;;;10.08;61.92
15007;BME280;7599;50.748;13.142;2024-01-30T06:04:11;96940.66;;;10.09;61.96
15007;BME280;7599;50.748;13.142;2024-01-30T06:07:20;96963.63;;;10.20;62.15
15007;BME280;7599;50.748;13.142;2024-01-30T06:10:23;96963.94;;;10.19;62.26
15007;BME280;7599;50.748;13.142;2024-01-30T06:13:26;96958.31;;;10.15;62.88
15007;BME280;7599;50.748;13.142;2024-01-30T06:16:37;96962.31;;;10.18;63.20
15007;BME280;7599;50.748;13.142;2024-01-30T06:19:40;96957.53;;;10.15;62.34
15007;BME280;7599;50.748;13.142;2024-01-30T06:22:44;96965.78;;;10.18;62.61
15007;BME280;7599;50.748;13.142;2024-01-30T06:25:47;96952.47;;;10.08;63.01
15007;BME280;7599;50.748;13.142;2024-01-30T06:28:49;96939.91;;;10.03;63.28
15007;BME280;7599;50.748;13.142;2024-01-30T06:31:56;96959.69;;;10.13;62.69
15007;BME280;7599;50.748;13.142;2024-01-30T06:34:58;96964.19;;;10.17;62.75
15007;BME280;7599;50.748;13.142;2024-01-30T06:38:16;96952.66;;;10.17;62.34
15007;BME280;7599;50.748;13.142;2024-01-30T06:41:34;96936.94;;;10.05;61.93
15007;BME280;7599;50.748;13.142;2024-01-30T06:44:36;96942.53;;;10.08;62.52
15007;BME280;7599;50.748;13.142;2024-01-30T06:47:39;96942.53;;;10.08;61.89
15007;BME280;7599;50.748;13.142;2024-01-30T06:50:42;96954.25;;;10.18;62.65
15007;BME280;7599;50.748;13.142;2024-01-30T06:54:07;96947.34;;;10.12;61.80
15007;BME280;7599;50.748;13.142;2024-01-30T06:57:09;96954.00;;;10.14;62.51
15007;BME280;7599;50.748;13.142;2024-01-30T07:00:14;96953.75;;;10.16;62.36
15007;BME280;7599;50.748;13.142;2024-01-30T07:03:18;96954.00;;;10.14;62.48
15007;BME280;7599;50.748;13.142;2024-01-30T07:06:20;96958.88;;;10.12;62.57
15007;BME280;7599;50.748;13.142;2024-01-30T07:09:25;96965.34;;;10.11;63.07
15007;BME280;7599;50.748;13.142;2024-01-30T07:12:30;96971.53;;;10.12;62.72
15007;BME280;7599;50.748;13.142;2024-01-30T07:15:41;96979.81;;;10.15;62.83
15007;BME280;7599;50.748;13.142;2024-01-30T07:18:44;96976.88;;;10.12;62.83
15007;BME280;7599;50.748;13.142;2024-01-30T07:21:57;96983.56;;;10.14;62.68
15007;BME280;7599;50.748;13.142;2024-01-30T07:28:51;96982.19;;;10.17;62.57
15007;BME280;7599;50.748;13.142;2024-01-30T07:31:54;96975.25;;;10.16;62.03
15007;BME280;7599;50.748;13.142;2024-01-30T07:35:00;96973.84;;;10.18;62.95
15007;BME280;7599;50.748;13.142;2024-01-30T07:38:09;96968.78;;;10.17;62.99
15007;BME280;7599;50.748;13.142;2024-01-30T07:41:23;96985.44;;;10.19;62.63
15007;BME280;7599;50.748;13.142;2024-01-30T07:44:28;96968.84;;;10.12;62.90
15007;BME280;7599;50.748;13.142;2024-01-30T07:47:30;96974.44;;;10.15;62.65
15007;BME280;7599;50.748;13.142;2024-01-30T07:50:34;96973.34;;;10.16;63.05
15007;BME280;7599;50.748;13.142;2024-01-30T07:53:37;96970.44;;;10.13;62.72
15007;BME280;7599;50.748;13.142;2024-01-30T07:56:39;96982.19;;;10.17;62.84
15007;BME280;7599;50.748;13.142;2024-01-30T07:59:44;96988.91;;;10.19;62.70
15007;BME280;7599;50.748;13.142;2024-01-30T08:02:47;96997.47;;;10.21;62.78
15007;BME280;7599;50.748;13.142;2024-01-30T08:05:50;96986.50;;;10.18;63.19
15007;BME280;7599;50.748;13.142;2024-01-30T08:08:53;96996.66;;;10.21;62.92
15007;BME280;7599;50.748;13.142;2024-01-30T08:11:55;96999.97;;;10.13;63.09
15007;BME280;7599;50.748;13.142;2024-01-30T08:15:01;97007.47;;;10.16;62.75
15007;BME280;7599;50.748;13.142;2024-01-30T08:18:18;96993.81;;;10.12;62.73
15007;BME280;7599;50.748;13.142;2024-01-30T08:21:21;97002.41;;;10.09;62.40
15007;BME280;7599;50.748;13.142;2024-01-30T08:24:24;97015.53;;;10.16;62.42
15007;BME280;7599;50.748;13.142;2024-01-30T08:27:32;97017.13;;;10.17;63.11
15007;BME280;7599;50.748;13.142;2024-01-30T08:41:29;96994.31;;;10.14;62.21
15007;BME280;7599;50.748;13.142;2024-01-30T08:44:32;96986.03;;;10.11;62.30
15007;BME280;7599;50.748;13.142;2024-01-30T08:47:35;96981.97;;;10.13;62.49
15007;BME280;7599;50.748;13.142;2024-01-30T08:50:42;96981.22;;;10.07;62.46
15007;BME280;7599;50.748;13.142;2024-01-30T08:53:44;96990.03;;;10.13;62.43
15007;BME280;7599;50.748;13.142;2024-01-30T08:57:00;96997.53;;;10.16;62.74
15007;BME280;7599;50.748;13.142;2024-01-30T09:00:13;96983.34;;;10.11;62.36
15007;BME280;7599;50.748;13.142;2024-01-30T09:03:18;96995.63;;;10.17;62.41
15007;BME280;7599;50.748;13.142;2024-01-30T09:06:34;96994.31;;;10.14;62.38
15007;BME280;7599;50.748;13.142;2024-01-30T09:09:37;96994.84;;;10.16;62.45
15007;BME280;7599;50.748;13.142;2024-01-30T09:12:52;96987.06;;;10.15;62.21
15007;BME280;7599;50.748;13.142;2024-01-30T09:15:55;96994.03;;;10.16;62.51
15007;BME280;7599;50.748;13.142;2024-01-30T09:18:58;97000.22;;;10.16;62.61
15007;BME280;7599;50.748;13.142;2024-01-30T09:22:22;97009.31;;;10.20;62.99
15007;BME280;7599;50.748;13.142;2024-01-30T09:25:27;96998.31;;;10.17;62.54
15007;BME280;7599;50.748;13.142;2024-01-30T09:28:43;96999.66;;;10.19;63.09
15007;BME280;7599;50.748;13.142;2024-01-30T09:31:57;96990.78;;;10.19;62.49
15007;BME280;7599;50.748;13.142;2024-01-30T09:35:01;96980.63;;;10.16;62.62
15007;BME280;7599;50.748;13.142;2024-01-30T09:38:27;96981.13;;;10.18;62.27
15007;BME280;7599;50.748;13.142;2024-01-30T09:41:32;96980.31;;;10.17;62.44
15007;BME280;7599;50.748;13.142;2024-01-30T09:44:37;96978.44;;;10.18;62.40
15007;BME280;7599;50.748;13.142;2024-01-30T09:47:53;96974.94;;;10.17;62.72
15007;BME280;7599;50.748;13.142;2024-01-30T09:51:10;96957.91;;;10.03;62.87
15007;BME280;7599;50.748;13.142;2024-01-30T09:54:18;96982.50;;;10.15;63.07
15007;BME280;7599;50.748;13.142;2024-01-30T09:57:23;96980.63;;;10.16;63.46
15007;BME280;7599;50.748;13.142;2024-01-30T10:00:43;96987.56;;;10.17;63.37
15007;BME280;7599;50.748;13.142;2024-01-30T10:03:50;96982.75;;;10.14;63.16
15007;BME280;7599;50.748;13.142;2024-01-30T10:07:07;96983.06;;;10.12;63.73
15007;BME280;7599;50.748;13.142;2024-01-30T10:10:23;96988.91;;;10.19;63.37
15007;BME280;7599;50.748;13.142;2024-01-30T10:13:26;96975.19;;;10.21;63.62
15007;BME280;7599;50.748;13.142;2024-01-30T10:16:30;96969.81;;;10.21;63.55
15007;BME280;7599;50.748;13.142;2024-01-30T10:19:33;96975.16;;;10.26;63.37
15007;BME280;7599;50.748;13.142;2024-01-30T10:22:40;96959.06;;;10.21;63.44
15007;BME280;7599;50.748;13.142;2024-01-30T10:25:43;96964.94;;;10.28;63.27
15007;BME280;7599;50.748;13.142;2024-01-30T10:28:48;96951.81;;;10.21;63.57
15007;BME280;7599;50.748;13.142;2024-01-30T10:32:20;96957.66;;;10.28;63.19
15007;BME280;7599;50.748;13.142;2024-01-30T10:35:23;96941.84;;;10.22;63.03
15007;BME280;7599;50.748;13.142;2024-01-30T10:38:42;96952.00;;;10.30;63.34
15007;BME280;7599;50.748;13.142;2024-01-30T10:41:54;96937.28;;;10.22;63.36
15007;BME280;7599;50.748;13.142;2024-01-30T10:45:02;96946.94;;;10.28;63.92
15007;BME280;7599;50.748;13.142;2024-01-30T10:48:26;96928.16;;;10.23;63.65
15007;BME280;7599;50.748;13.142;2024-01-30T10:52:06;96923.03;;;10.22;64.01
15007;BME280;7599;50.748;13.142;2024-01-30T10:55:10;96927.88;;;10.25;63.61
15007;BME280;7599;50.748;13.142;2024-01-30T10:58:15;96930.28;;;10.26;63.26
15007;BME280;7599;50.748;13.142;2024-01-30T11:01:19;96934.00;;;10.30;63.78
15007;BME280;7599;50.748;13.142;2024-01-30T11:04:43;96923.56;;;10.24;63.62
15007;BME280;7599;50.748;13.142;2024-01-30T11:07:46;96913.41;;;10.21;63.62
15007;BME280;7599;50.748;13.142;2024-01-30T11:10:55;96914.16;;;10.26;63.40
15007;BME280;7599;50.748;13.142;2024-01-30T11:14:13;96917.38;;;10.28;63.67
15007;BME280;7599;50.748;13.142;2024-01-30T11:17:16;96905.84;;;10.23;63.57
15007;BME280;7599;50.748;13.142;2024-01-30T11:20:31;96909.31;;;10.28;64.04
15007;BME280;7599;50.748;13.142;2024-01-30T11:23:34;96905.81;;;10.28;63.72
15007;BME280;7599;50.748;13.142;2024-01-30T11:30:23;96913.03;;;10.32;63.80
15007;BME280;7599;50.748;13.142;2024-01-30T11:33:28;96903.13;;;10.28;64.04
15007;BME280;7599;50.748;13.142;2024-01-30T11:40:08;96900.38;;;10.33;63.95
15007;BME280;7599;50.748;13.142;2024-01-30T11:43:25;96898.25;;;10.30;64.34
15007;BME280;7599;50.748;13.142;2024-01-30T11:46:29;96876.56;;;10.21;64.09
15007;BME280;7599;50.748;13.142;2024-01-30T11:49:32;96884.34;;;10.28;64.03
15007;BME280;7599;50.748;13.142;2024-01-30T11:52:38;96899.81;;;10.36;64.30
15007;BME280;7599;50.748;13.142;2024-01-30T11:59:19;96890.22;;;10.30;64.16
15007;BME280;7599;50.748;13.142;2024-01-30T12:02:22;96889.91;;;10.31;64.08
15007;BME280;7599;50.748;13.142;2024-01-30T12:05:25;96887.75;;;10.34;64.06
15007;BME280;7599;50.748;13.142;2024-01-30T12:08:36;96883.75;;;10.31;64.18
15007;BME280;7599;50.748;13.142;2024-01-30T12:12:03;96889.06;;;10.36;64.14
15007;BME280;7599;50.748;13.142;2024-01-30T12:15:13;96886.88;;;10.38;64.38
15007;BME280;7599;50.748;13.142;2024-01-30T12:18:18;96886.88;;;10.38;64.49
15007;BME280;7599;50.748;13.142;2024-01-30T12:21:21;96881.28;;;10.35;64.23
15007;BME280;7599;50.748;13.142;2024-01-30T12:24:45;96886.59;;;10.40;64.34
15007;BME280;7599;50.748;13.142;2024-01-30T12:27:49;96870.31;;;10.31;64.71
15007;BME280;7599;50.748;13.142;2024-01-30T12:31:42;96869.50;;;10.30;64.23
15007;BME280;7599;50.748;13.142;2024-01-30T12:35:18;96874.53;;;10.37;64.55
15007;BME280;7599;50.748;13.142;2024-01-30T12:38:22;96868.72;;;10.30;64.54
15007;BME280;7599;50.748;13.142;2024-01-30T12:41:55;96863.88;;;10.32;64.91
15007;BME280;7599;50.748;13.142;2024-01-30T12:44:58;96871.25;;;10.40;64.92
15007;BME280;7599;50.748;13.142;2024-01-30T12:48:03;96867.28;;;10.38;64.53
15007;BME280;7599;50.748;13.142;2024-01-30T12:51:06;96864.03;;;10.41;64.63
15007;BME280;7599;50.748;13.142;2024-01-30T12:54:08;96853.38;;;10.30;64.73
15007;BME280;7599;50.748;13.142;2024-01-30T12:57:11;96860.50;;;10.40;64.55
15007;BME280;7599;50.748;13.142;2024-01-30T13:00:14;96871.56;;;10.39;64.49
15007;BME280;7599;50.748;13.142;2024-01-30T13:03:41;96859.84;;;10.29;64.41
15007;BME280;7599;50.748;13.142;2024-01-30T13:06:50;96872.34;;;10.39;64.62
15007;BME280;7599;50.748;13.142;2024-01-30T13:09:53;96858.50;;;10.32;64.80
15007;BME280;7599;50.748;13.142;2024-01-30T13:12:55;96867.63;;;10.31;64.72
15007;BME280;7599;50.748;13.142;2024-01-30T13:16:00;96874.00;;;10.35;64.53
15007;BME280;7599;50.748;13.142;2024-01-30T13:19:04;96868.72;;;10.30;64.69
15007;BME280;7599;50.748;13.142;2024-01-30T13:22:09;96865.16;;;10.35;64.17
15007;BME280;7599;50.748;13.142;2024-01-30T13:25:12;96857.41;;;10.33;65.07
15007;BME280;7599;50.748;13.142;2024-01-30T13:28:15;96864.06;;;10.36;64.67
15007;BME280;7599;50.748;13.142;2024-01-30T13:31:29;96862.47;;;10.35;64.39
15007;BME280;7599;50.748;13.142;2024-01-30T13:35:02;96860.16;;;10.28;64.77
15007;BME280;7599;50.748;13.142;2024-01-30T13:38:06;96865.97;;;10.35;64.81
15007;BME280;7599;50.748;13.142;2024-01-30T13:41:09;96851.56;;;10.26;65.09
15007;BME280;7599;50.748;13.142;2024-01-30T13:44:11;96852.09;;;10.28;64.70
15007;BME280;7599;50.748;13.142;2024-01-30T13:47:28;96861.97;;;10.32;64.47
15007;BME280;7599;50.748;13.142;2024-01-30T13:53:59;96846.91;;;10.31;64.76
15007;BME280;7599;50.748;13.142;2024-01-30T13:57:02;96840.25;;;10.29;64.77
15007;BME280;7599;50.748;13.142;2024-01-30T14:00:16;96848.81;;;10.31;64.62
15007;BME280;7599;50.748;13.142;2024-01-30T14:03:21;96841.63;;;10.26;64.85
15007;BME280;7599;50.748;13.142;2024-01-30T14:06:24;96836.25;;;10.26;64.78
15007;BME280;7599;50.748;13.142;2024-01-30T14:09:28;96852.53;;;10.35;64.64
15007;BME280;7599;50.748;13.142;2024-01-30T14:12:31;96843.44;;;10.31;64.62
15007;BME280;7599;50.748;13.142;2024-01-30T14:15:34;96855.22;;;10.35;64.99
15007;BME280;7599;50.748;13.142;2024-01-30T14:18:44;96848.00;;;10.30;65.03
15007;BME280;7599;50.748;13.142;2024-01-30T14:21:47;96844.53;;;10.30;65.01
15007;BME280;7599;50.748;13.142;2024-01-30T14:24:51;96848.25;;;10.34;64.78
15007;BME280;7599;50.748;13.142;2024-01-30T14:28:01;96847.22;;;10.30;64.87
15007;BME280;7599;50.748;13.142;2024-01-30T14:31:09;96846.91;;;10.31;64.97
15007;BME280;7599;50.748;13.142;2024-01-30T14:34:18;96846.88;;;10.37;65.33
15007;BME280;7599;50.748;13.142;2024-01-30T14:37:21;96851.44;;;10.36;64.83
15007;BME280;7599;50.748;13.142;2024-01-30T14:40:26;96839.22;;;10.25;64.97
15007;BME280;7599;50.748;13.142;2024-01-30T14:43:29;96842.63;;;10.30;64.74
15007;BME280;7599;50.748;13.142;2024-01-30T14:46:38;96860.31;;;10.37;65.20
15007;BME280;7599;50.748;13.142;2024-01-30T14:49:41;96844.53;;;10.30;64.97
15007;BME280;7599;50.748;13.142;2024-01-30T14:52:44;96825.53;;;10.21;64.75
15007;BME280;7599;50.748;13.142;2024-01-30T14:55:49;96835.19;;;10.27;64.65
15007;BME280;7599;50.748;13.142;2024-01-30T14:58:51;96830.06;;;10.26;64.39
15007;BME280;7599;50.748;13.142;2024-01-30T15:01:54;96845.06;;;10.32;64.57
15007;BME280;7599;50.748;13.142;2024-01-30T15:04:57;96837.88;;;10.27;64.79
15007;BME280;7599;50.748;13.142;2024-01-30T15:08:01;96837.88;;;10.27;64.65
15007;BME280;7599;50.748;13.142;2024-01-30T15:11:06;96849.59;;;10.31;64.91
15007;BME280;7599;50.748;13.142;2024-01-30T15:14:09;96838.66;;;10.28;64.93
15007;BME280;7599;50.748;13.142;2024-01-30T15:17:19;96834.41;;;10.22;65.13
15007;BME280;7599;50.748;13.142;2024-01-30T15:20:23;96835.44;;;10.26;64.91
15007;BME280;7599;50.748;13.142;2024-01-30T15:23:41;96859.53;;;10.36;64.30
15007;BME280;7599;50.748;13.142;2024-01-30T15:26:47;96842.16;;;10.28;64.59
15007;BME280;7599;50.748;13.142;2024-01-30T15:29:50;96851.31;;;10.27;64.47
15007;BME280;7599;50.748;13.142;2024-01-30T15:32:53;96857.41;;;10.33;64.61
15007;BME280;7599;50.748;13.142;2024-01-30T15:35:59;96860.09;;;10.33;64.77
15007;BME280;7599;50.748;13.142;2024-01-30T15:39:02;96864.88;;;10.36;64.57
15007;BME280;7599;50.748;13.142;2024-01-30T15:42:25;96864.06;;;10.36;64.26
15007;BME280;7599;50.748;13.142;2024-01-30T15:45:27;96865.97;;;10.35;64.26
15007;BME280;7599;50.748;13.142;2024-01-30T15:48:30;96854.47;;;10.29;64.39
15007;BME280;7599;50.748;13.142;2024-01-30T15:51:34;96852.09;;;10.28;64.22
15007;BME280;7599;50.748;13.142;2024-01-30T15:54:37;96862.53;;;10.29;64.31
15007;BME280;7599;50.748;13.142;2024-01-30T15:57:41;96858.84;;;10.25;63.94
15007;BME280;7599;50.748;13.142;2024-01-30T16:00:44;96871.34;;;10.35;64.44
15007;BME280;7599;50.748;13.142;2024-01-30T16:03:46;96875.34;;;10.38;64.48
15007;BME280;7599;50.748;13.142;2024-01-30T16:06:50;96864.13;;;10.30;64.46
15007;BME280;7599;50.748;13.142;2024-01-30T16:09:55;96877.22;;;10.37;64.43
15007;BME280;7599;50.748;13.142;2024-01-30T16:13:05;96868.16;;;10.33;64.37
15007;BME280;7599;50.748;13.142;2024-01-30T16:16:08;96877.22;;;10.37;64.88
15007;BME280;7599;50.748;13.142;2024-01-30T16:19:11;96866.03;;;10.30;64.31
15007;BME280;7599;50.748;13.142;2024-01-30T16:22:14;96866.03;;;10.30;64.71
15007;BME280;7599;50.748;13.142;2024-01-30T16:25:19;96864.13;;;10.30;64.56
15007;BME280;7599;50.748;13.142;2024-01-30T16:28:25;96872.19;;;10.30;64.79
15007;BME280;7599;50.748;13.142;2024-01-30T16:31:28;96866.31;;;10.28;64.78
15007;BME280;7599;50.748;13.142;2024-01-30T16:34:31;96893.84;;;10.39;65.07
15007;BME280;7599;50.748;13.142;2024-01-30T16:37:34;96885.34;;;10.32;65.22
15007;BME280;7599;50.748;13.142;2024-01-30T16:40:36;96885.28;;;10.37;65.45
15007;BME280;7599;50.748;13.142;2024-01-30T16:43:43;96887.97;;;10.37;64.97
15007;BME280;7599;50.748;13.142;2024-01-30T16:46:46;96882.44;;;10.28;65.50
15007;BME280;7599;50.748;13.142;2024-01-30T16:49:52;96890.44;;;10.34;65.22
15007;BME280;7599;50.748;13.142;2024-01-30T16:52:59;96885.13;;;10.28;65.68
15007;BME280;7599;50.748;13.142;2024-01-30T16:56:02;96898.19;;;10.35;65.58
15007;BME280;7599;50.748;13.142;2024-01-30T16:59:06;96897.69;;;10.33;65.51
15007;BME280;7599;50.748;13.142;2024-01-30T17:02:19;96894.22;;;10.32;65.37
15007;BME280;7599;50.748;13.142;2024-01-30T17:05:26;96906.78;;;10.37;65.73
15007;BME280;7599;50.748;13.142;2024-01-30T17:08:31;96899.81;;;10.36;65.68
15007;BME280;7599;50.748;13.142;2024-01-30T17:11:33;96895.81;;;10.34;65.57